Time;durP1;ratioP1;P1;durP2;ratioP2;P2;SDS_P1;SDS_P2;PMS_P1;PMS_P2;Temp;Humidity;BMP_temperature;BMP_pressure;BME280_temperature;BME280_humidity;BME280_pressure;Samples;Min_cycle;Max_cycle;Signal;HPM_P1;HPM_P2
2021/04/14 00:01:07;;;;;;;14.27;2.67;;;;;;;2.33;99.44;102088.59;5187538;28;20029;-77
2021/04/14 00:03:37;;;;;;;13.48;2.80;;;;;;;2.38;99.35;102089.56;5201187;28;20112;-80
2021/04/14 00:06:09;;;;;;;11.32;2.80;;;;;;;2.47;99.52;102083.75;5182727;28;20103;-79
2021/04/14 00:08:39;;;;;;;10.38;2.40;;;;;;;2.38;99.74;102079.25;5178142;28;20022;-79
2021/04/14 00:11:18;;;;;;;10.30;2.78;;;;;;;2.71;98.27;102079.06;5178649;28;20026;-79
2021/04/14 00:13:49;;;;;;;10.32;2.70;;;;;;;2.66;97.40;102075.53;5179140;28;20027;-78
2021/04/14 00:16:23;;;;;;;12.65;2.53;;;;;;;2.52;99.49;102082.97;5195354;28;20473;-79
2021/04/14 00:19:10;;;;;;;;;;;;;;;;;;;;;
2021/04/14 00:21:41;;;;;;;13.57;2.72;;;;;;;2.44;100.00;102083.66;5182999;28;20475;-79
2021/04/14 00:24:14;;;;;;;16.38;3.10;;;;;;;2.55;99.96;102082.19;5163327;28;20089;-79
2021/04/14 00:26:45;;;;;;;12.85;2.53;;;;;;;2.63;99.48;102080.59;5164734;28;20037;-80
2021/04/14 00:29:15;;;;;;;15.45;2.92;;;;;;;2.47;100.00;102076.00;5159229;28;20051;-79
2021/04/14 00:31:46;;;;;;;11.73;2.58;;;;;;;2.71;99.10;102081.66;5177746;28;20033;-77
2021/04/14 00:34:19;;;;;;;12.88;2.75;;;;;;;2.80;99.04;102076.66;5179270;28;20035;-80
2021/04/14 00:36:50;;;;;;;11.35;3.03;;;;;;;2.79;98.32;102082.66;5175614;28;20036;-78
2021/04/14 00:39:23;;;;;;;8.18;2.60;;;;;;;2.66;99.45;102075.53;5162547;28;20022;-80
2021/04/14 00:41:54;;;;;;;11.80;2.80;;;;;;;2.53;99.79;102079.56;5157069;28;20026;-79
2021/04/14 00:44:25;;;;;;;14.68;3.08;;;;;;;2.65;100.00;102069.50;5169178;28;20030;-78
2021/04/14 00:46:55;;;;;;;13.13;2.85;;;;;;;2.61;99.58;102066.81;5169726;28;20030;-78
2021/04/14 00:49:27;;;;;;;12.13;3.08;;;;;;;2.52;100.00;102071.78;5170703;28;20058;-78
2021/04/14 00:51:58;;;;;;;12.43;3.00;;;;;;;2.63;99.96;102070.28;5175037;28;20434;-79
2021/04/14 00:54:28;;;;;;;12.48;2.92;;;;;;;2.51;100.00;102073.50;5171767;28;20030;-79
2021/04/14 00:56:58;;;;;;;12.50;3.00;;;;;;;2.49;100.00;102067.44;5188965;28;20062;-78
2021/04/14 00:59:29;;;;;;;11.93;3.10;;;;;;;2.59;100.00;102068.50;5182084;28;20084;-79
2021/04/14 01:01:59;;;;;;;10.10;2.88;;;;;;;2.64;99.38;102064.28;5173462;28;20033;-79
2021/04/14 01:04:29;;;;;;;12.60;3.17;;;;;;;2.76;99.50;102062.84;5204373;28;20033;-79
2021/04/14 01:07:00;;;;;;;14.52;3.08;;;;;;;2.72;98.03;102067.91;5205061;28;20398;-79
2021/04/14 01:09:30;;;;;;;13.23;3.25;;;;;;;2.71;99.26;102058.41;5183793;28;20088;-79
2021/04/14 01:12:00;;;;;;;17.25;3.13;;;;;;;2.72;99.20;102065.31;5194477;28;20060;-79
2021/04/14 01:14:31;;;;;;;14.25;3.45;;;;;;;2.53;99.35;102061.50;5179081;28;20029;-79
2021/04/14 01:17:02;;;;;;;13.85;3.47;;;;;;;2.50;98.73;102064.00;5180646;28;20064;-79
2021/04/14 01:19:33;;;;;;;12.55;3.25;;;;;;;2.40;100.00;102062.09;5183122;28;20547;-79
2021/04/14 01:22:03;;;;;;;16.88;3.15;;;;;;;2.47;99.14;102066.53;5182345;28;20104;-79
2021/04/14 01:24:33;;;;;;;12.38;3.58;;;;;;;2.33;99.72;102064.50;5173524;28;20130;-78
2021/04/14 01:27:04;;;;;;;13.15;3.20;;;;;;;2.31;100.00;102066.19;5181475;28;20028;-79
2021/04/14 01:29:34;;;;;;;10.82;3.33;;;;;;;2.17;100.00;102063.28;5199305;28;20029;-78
2021/04/14 01:32:05;;;;;;;10.70;3.42;;;;;;;2.20;100.00;102070.25;5181588;28;20115;-78
2021/04/14 01:34:35;;;;;;;11.95;3.70;;;;;;;2.14;100.00;102068.38;5200062;28;20029;-79
2021/04/14 01:37:05;;;;;;;11.60;3.70;;;;;;;2.12;100.00;102061.44;5197792;28;20491;-79
2021/04/14 01:39:36;;;;;;;13.82;3.78;;;;;;;2.12;100.00;102064.91;5181121;28;20026;-79
2021/04/14 01:42:06;;;;;;;13.40;3.80;;;;;;;1.89;100.00;102065.22;5199792;28;20057;-79
2021/04/14 01:44:36;;;;;;;12.82;3.92;;;;;;;1.78;100.00;102069.25;5199075;28;20057;-79
2021/04/14 01:47:07;;;;;;;15.07;4.13;;;;;;;1.79;100.00;102068.44;5199256;28;20053;-79
2021/04/14 01:49:37;;;;;;;13.65;4.07;;;;;;;1.89;100.00;102068.69;5199176;28;20672;-79
2021/04/14 01:52:07;;;;;;;12.60;3.92;;;;;;;1.81;100.00;102079.66;5201797;28;20026;-79
2021/04/14 01:54:38;;;;;;;10.40;3.58;;;;;;;1.73;100.00;102075.16;5191628;28;20025;-79
2021/04/14 01:57:08;;;;;;;17.98;4.57;;;;;;;1.77;100.00;102076.97;5181402;28;20037;-79
2021/04/14 01:59:38;;;;;;;14.55;3.88;;;;;;;1.82;100.00;102077.09;5198692;28;20060;-79
2021/04/14 02:02:09;;;;;;;13.52;4.15;;;;;;;1.80;100.00;102068.47;5182051;28;20164;-79
2021/04/14 02:04:39;;;;;;;15.75;4.15;;;;;;;1.79;100.00;102078.75;5199179;28;20029;-79
2021/04/14 02:07:10;;;;;;;15.68;3.95;;;;;;;1.82;100.00;102073.66;5201930;28;20427;-79
2021/04/14 02:09:41;;;;;;;12.18;3.58;;;;;;;1.26;100.00;102066.22;5199619;28;20026;-78
2021/04/14 02:12:11;;;;;;;14.73;3.83;;;;;;;1.10;100.00;102066.66;5181808;28;20021;-78
2021/04/14 02:14:41;;;;;;;15.18;3.92;;;;;;;1.09;100.00;102072.66;5181860;28;20033;-79
2021/04/14 02:17:12;;;;;;;11.15;3.72;;;;;;;1.22;100.00;102067.00;5180909;28;20025;-79
2021/04/14 02:19:42;;;;;;;15.48;3.92;;;;;;;1.30;100.00;102064.63;5199755;28;20072;-79
2021/04/14 02:22:13;;;;;;;13.57;3.90;;;;;;;1.28;100.00;102056.88;5183955;28;20419;-80
2021/04/14 02:24:43;;;;;;;10.05;3.38;;;;;;;1.39;100.00;102070.88;5200251;28;20026;-80
2021/04/14 02:27:13;;;;;;;11.82;3.72;;;;;;;1.30;100.00;102067.19;5179262;28;20116;-79
2021/04/14 02:29:43;;;;;;;12.63;3.70;;;;;;;1.33;100.00;102065.56;5199013;28;20040;-79
2021/04/14 02:32:14;;;;;;;12.25;3.67;;;;;;;1.45;100.00;102059.84;5179917;28;20046;-79
2021/04/14 02:34:44;;;;;;;13.35;4.13;;;;;;;1.39;100.00;102063.13;5181704;28;20029;-80
2021/04/14 02:37:15;;;;;;;12.55;3.90;;;;;;;1.48;100.00;102059.91;5197730;28;20687;-79
2021/04/14 02:39:45;;;;;;;15.07;3.78;;;;;;;1.39;100.00;102055.41;5198498;28;20045;-80
2021/04/14 02:42:15;;;;;;;14.15;3.65;;;;;;;1.39;100.00;102055.41;5196488;28;20060;-79
2021/04/14 02:44:46;;;;;;;15.48;3.90;;;;;;;1.43;100.00;102057.22;5198750;28;20033;-79
2021/04/14 02:47:16;;;;;;;11.82;3.63;;;;;;;1.42;100.00;102054.63;5197466;28;20622;-79
2021/04/14 02:49:46;;;;;;;10.93;4.00;;;;;;;1.47;100.00;102048.75;5194624;28;20022;-79
2021/04/14 02:52:17;;;;;;;11.82;4.13;;;;;;;1.51;100.00;102053.16;5180937;28;20046;-80
2021/04/14 02:54:48;;;;;;;9.20;3.47;;;;;;;1.56;99.98;102054.13;5173075;28;20022;-79
2021/04/14 02:57:18;;;;;;;12.30;3.85;;;;;;;1.45;99.62;102053.00;5181542;28;20100;-80
2021/04/14 02:59:49;;;;;;;13.23;3.67;;;;;;;1.32;99.76;102050.97;5178923;28;20104;-79
2021/04/14 03:02:21;;;;;;;10.90;3.60;;;;;;;1.22;100.00;102048.97;5181076;28;20017;-80
2021/04/14 03:04:51;;;;;;;9.18;3.65;;;;;;;1.21;99.57;102044.66;5178646;28;20032;-78
2021/04/14 03:07:21;;;;;;;15.00;4.22;;;;;;;1.21;99.98;102049.81;5182044;28;20025;-80
2021/04/14 03:09:52;;;;;;;14.82;4.03;;;;;;;1.06;100.00;102046.84;5196610;28;20028;-79
2021/04/14 03:12:22;;;;;;;13.60;4.40;;;;;;;1.03;100.00;102053.63;5181977;28;20033;-79
2021/04/14 03:14:53;;;;;;;10.90;4.00;;;;;;;1.03;100.00;102049.34;5195851;28;20021;-80
2021/04/14 03:17:23;;;;;;;14.40;4.20;;;;;;;1.01;100.00;102040.69;5196750;28;20026;-79
2021/04/14 03:19:54;;;;;;;14.68;4.18;;;;;;;0.94;100.00;102046.53;5182237;28;20068;-79
2021/04/14 03:22:24;;;;;;;14.15;4.03;;;;;;;0.85;100.00;102047.97;5187449;28;20053;-79
2021/04/14 03:24:54;;;;;;;12.68;4.60;;;;;;;1.01;100.00;102040.69;5190255;28;20033;-79
2021/04/14 03:27:25;;;;;;;18.58;4.70;;;;;;;1.03;100.00;102046.75;5200338;28;20531;-80
2021/04/14 03:29:55;;;;;;;12.15;4.47;;;;;;;1.01;100.00;102045.84;5195946;28;20038;-80
2021/04/14 03:32:26;;;;;;;12.63;4.32;;;;;;;1.01;100.00;102039.81;5180777;28;20025;-79
2021/04/14 03:34:56;;;;;;;14.30;4.50;;;;;;;1.04;100.00;102040.78;5178300;28;20034;-80
2021/04/14 03:37:26;;;;;;;13.07;4.90;;;;;;;1.03;100.00;102041.59;5198382;28;20108;-79
2021/04/14 03:39:57;;;;;;;15.02;4.40;;;;;;;1.06;100.00;102039.09;5195872;28;20029;-79
2021/04/14 03:42:27;;;;;;;11.50;4.60;;;;;;;1.06;100.00;102039.09;5199267;28;20030;-79
2021/04/14 03:45:00;;;;;;;10.30;4.32;;;;;;;1.03;100.00;102033.88;5198430;28;20025;-80
2021/04/14 03:47:31;;;;;;;12.88;4.40;;;;;;;1.09;100.00;102034.03;5196701;28;20041;-79
2021/04/14 03:50:01;;;;;;;9.32;4.30;;;;;;;1.08;100.00;102032.28;5180634;28;20407;-79
2021/04/14 03:52:31;;;;;;;14.32;5.20;;;;;;;1.09;100.00;102043.47;5180881;28;20467;-80
2021/04/14 03:55:03;;;;;;;11.75;4.15;;;;;;;1.16;100.00;102038.53;5171929;28;20026;-80
2021/04/14 03:57:34;;;;;;;15.57;4.60;;;;;;;1.20;100.00;102045.50;5194303;28;20083;-78
2021/04/14 04:00:06;;;;;;;12.55;4.30;;;;;;;1.32;100.00;102040.66;5168706;28;20492;-79
2021/04/14 04:02:37;;;;;;;13.80;4.35;;;;;;;1.20;100.00;102042.91;5189253;28;20022;-78
2021/04/14 04:05:09;;;;;;;9.35;4.00;;;;;;;1.23;100.00;102042.97;5175554;28;20149;-79
2021/04/14 04:07:39;;;;;;;14.00;4.55;;;;;;;1.22;100.00;102046.38;5197173;28;20040;-79
2021/04/14 04:10:10;;;;;;;16.98;4.20;;;;;;;1.13;100.00;102053.91;5197289;28;20029;-79
2021/04/14 04:12:41;;;;;;;10.30;4.28;;;;;;;1.09;100.00;102044.31;5196426;28;20026;-79
2021/04/14 04:15:12;;;;;;;11.00;4.25;;;;;;;1.15;100.00;102048.78;5197647;28;20555;-78
2021/04/14 04:17:43;;;;;;;13.88;4.35;;;;;;;1.11;100.00;102047.84;5197505;28;20025;-79
2021/04/14 04:20:13;;;;;;;15.43;4.30;;;;;;;1.10;100.00;102043.50;5197790;28;21260;-79
2021/04/14 04:22:43;;;;;;;11.52;4.20;;;;;;;1.08;100.00;102042.59;5181150;28;20036;-79
2021/04/14 04:25:14;;;;;;;9.73;4.03;;;;;;;1.12;100.00;102049.59;5172300;28;20037;-79
2021/04/14 04:27:44;;;;;;;15.07;4.32;;;;;;;1.12;100.00;102046.13;5196684;28;20041;-79
2021/04/14 04:30:15;;;;;;;14.15;4.60;;;;;;;1.17;100.00;102059.97;5207359;23;20045;-83
2021/04/14 04:32:45;;;;;;;10.82;3.97;;;;;;;1.21;100.00;102060.09;5216230;28;20033;-83
2021/04/14 04:35:16;;;;;;;11.38;4.28;;;;;;;1.21;100.00;102064.41;5220100;28;20032;-83
2021/04/14 04:37:46;;;;;;;15.40;4.53;;;;;;;1.22;100.00;102061.00;5219525;28;20103;-82
2021/04/14 04:40:17;;;;;;;14.07;4.45;;;;;;;1.27;100.00;102070.53;5224380;28;20033;-82
2021/04/14 04:42:48;;;;;;;10.43;4.18;;;;;;;1.36;100.00;102073.38;5224125;28;20052;-83
2021/04/14 04:45:22;;;;;;;13.05;4.40;;;;;;;1.42;100.00;102073.50;5222788;28;20021;-80
2021/04/14 04:47:53;;;;;;;10.35;3.75;;;;;;;1.57;100.00;102073.03;5217349;28;20082;-80
2021/04/14 04:50:28;;;;;;;10.00;4.15;;;;;;;1.57;100.00;102076.47;5221174;28;20552;-80
2021/04/14 04:53:02;;;;;;;11.85;3.97;;;;;;;1.67;100.00;102068.13;5206223;28;20080;-82
2021/04/14 04:55:33;;;;;;;8.98;3.70;;;;;;;1.84;99.90;102074.56;5214402;28;20068;-80
2021/04/14 04:58:03;;;;;;;11.02;4.00;;;;;;;1.81;99.77;102075.34;5227175;28;20020;-81
2021/04/14 05:00:34;;;;;;;15.65;4.50;;;;;;;1.91;99.49;102084.16;5227387;28;20021;-80
2021/04/14 05:03:06;;;;;;;13.88;4.38;;;;;;;1.59;99.04;102084.25;5227405;28;20052;-81
2021/04/14 05:05:38;;;;;;;10.70;3.85;;;;;;;1.32;100.00;102091.28;5226200;28;20039;-80
2021/04/14 05:08:10;;;;;;;11.80;3.92;;;;;;;1.93;100.00;102090.22;5227418;28;20037;-81
2021/04/14 05:10:41;;;;;;;14.18;4.25;;;;;;;2.30;97.36;102091.09;5227198;28;20093;-81
2021/04/14 05:13:11;;;;;;;13.25;4.10;;;;;;;2.21;98.35;102093.50;5226234;28;20028;-80
2021/04/14 05:15:41;;;;;;;14.32;3.95;;;;;;;2.10;97.98;102105.25;5225292;28;20147;-80
2021/04/14 05:18:12;;;;;;;10.77;3.58;;;;;;;2.57;95.04;102102.03;5227626;28;20017;-80
2021/04/14 05:20:43;;;;;;;8.82;3.80;;;;;;;2.27;96.74;102101.34;5223513;28;20104;-81
2021/04/14 05:23:13;;;;;;;13.73;4.00;;;;;;;2.40;97.76;102105.06;5211418;28;20499;-81
2021/04/14 05:25:45;;;;;;;9.40;3.20;;;;;;;4.00;93.17;102097.75;5209250;28;20033;-80
2021/04/14 05:28:18;;;;;;;9.45;3.58;;;;;;;5.41;88.73;102090.03;5205187;28;20495;-80
2021/04/14 05:30:48;;;;;;;11.75;3.13;;;;;;;6.92;80.94;102087.63;5220129;28;20029;-81
2021/04/14 05:33:20;;;;;;;9.40;2.80;;;;;;;7.08;74.42;102086.81;5223857;28;20556;-80
2021/04/14 05:35:52;;;;;;;8.27;2.70;;;;;;;6.95;78.98;102091.06;5225102;28;20052;-80
2021/04/14 05:38:22;;;;;;;12.15;2.97;;;;;;;8.01;74.48;102082.53;5216857;28;20064;-80
2021/04/14 05:40:52;;;;;;;10.15;2.67;;;;;;;9.42;69.06;102083.72;5215322;28;20049;-80
2021/04/14 05:43:29;;;;;;;11.55;3.08;;;;;;;8.06;71.39;102079.03;5225259;28;20036;-81
2021/04/14 05:46:02;;;;;;;10.73;3.20;;;;;;;6.05;79.18;102089.75;5218457;28;20029;-80
2021/04/14 05:48:32;;;;;;;11.65;3.03;;;;;;;5.54;81.76;102095.34;5225444;28;20047;-81
2021/04/14 05:51:05;;;;;;;10.82;3.35;;;;;;;4.88;84.81;102105.88;5218478;28;20041;-81
2021/04/14 05:53:37;;;;;;;12.05;3.88;;;;;;;4.75;84.42;102103.97;5212469;28;20087;-82
2021/04/14 05:56:09;;;;;;;10.90;3.72;;;;;;;4.89;86.54;102100.72;5218849;28;20522;-79
2021/04/14 05:58:40;;;;;;;19.40;4.20;;;;;;;3.98;90.66;102110.66;5223913;28;20060;-79
2021/04/14 06:01:13;;;;;;;14.60;4.32;;;;;;;4.20;90.79;102106.69;5224722;28;20698;-80
2021/04/14 06:03:44;;;;;;;11.85;3.83;;;;;;;4.54;90.40;102114.06;5224698;28;20042;-81
2021/04/14 06:06:16;;;;;;;14.77;4.32;;;;;;;4.53;89.96;102104.56;5224638;28;20048;-81
2021/04/14 06:08:46;;;;;;;14.82;4.13;;;;;;;4.43;89.65;102110.47;5223299;28;20021;-80
2021/04/14 06:11:17;;;;;;;11.85;4.18;;;;;;;4.36;91.42;102103.47;5224526;28;20054;-81
2021/04/14 06:13:47;;;;;;;14.35;4.30;;;;;;;4.65;91.04;102100.41;5224127;28;20064;-80
2021/04/14 06:16:17;;;;;;;18.95;4.45;;;;;;;4.76;90.59;102106.59;5222984;28;20094;-80
2021/04/14 06:18:48;;;;;;;12.80;4.20;;;;;;;4.94;90.02;102104.22;5218363;28;20430;-80
2021/04/14 06:21:20;;;;;;;16.35;4.97;;;;;;;5.14;88.79;102094.94;5218793;28;20066;-79
2021/04/14 06:23:51;;;;;;;15.55;4.20;;;;;;;5.21;88.48;102096.75;5202474;28;20024;-80
2021/04/14 06:26:39;;;;;;;15.85;4.43;;;;;;;5.23;87.52;102102.81;5202103;28;20522;-80
2021/04/14 06:29:09;;;;;;;15.57;4.60;;;;;;;5.64;87.19;102102.38;5201268;28;20653;-79
2021/04/14 06:31:40;;;;;;;13.38;3.83;;;;;;;5.52;88.04;102099.66;5206991;28;20063;-83
2021/04/14 06:34:16;;;;;;;17.23;4.18;;;;;;;5.44;87.99;102095.25;5218756;28;20053;-83
2021/04/14 06:36:49;;;;;;;18.08;3.70;;;;;;;5.25;87.66;102097.63;5224915;28;20020;-80
2021/04/14 06:39:22;;;;;;;20.02;4.63;;;;;;;5.62;87.56;102100.59;5223283;28;20494;-80
2021/04/14 06:42:28;;;;;;;17.85;4.43;;;;;;;6.68;84.52;102092.69;5223236;28;20021;-81
2021/04/14 06:45:08;;;;;;;11.63;2.53;;;;;;;8.96;76.18;102073.59;5203431;28;20021;-84
2021/04/14 06:47:58;;;;;;;14.32;3.40;;;;;;;9.06;73.04;102079.63;5204488;28;20275;-82
2021/04/14 06:50:37;;;;;;;11.77;3.47;;;;;;;10.55;70.52;102069.66;5200571;28;20044;-81
2021/04/14 06:53:26;;;;;;;13.88;3.22;;;;;;;11.18;66.14;102070.56;5212470;28;20036;-81
2021/04/14 06:56:00;;;;;;;15.52;3.38;;;;;;;11.96;65.04;102061.47;5221513;28;20025;-82
2021/04/14 06:58:37;;;;;;;11.00;3.25;;;;;;;13.23;61.78;102056.25;5224178;28;20029;-82
2021/04/14 07:01:12;;;;;;;9.88;2.65;;;;;;;14.24;59.18;102062.50;5223974;28;20032;-82
2021/04/14 07:03:48;;;;;;;;;;;;;;;13.69;57.32;102063.91;5224643;28;20033;-84
2021/04/14 07:06:23;;;;;;;15.50;3.40;;;;;;;14.06;57.91;102078.72;5224145;28;19919;-82
2021/04/14 07:09:20;;;;;;;9.02;2.80;;;;;;;13.75;58.16;102067.25;5225048;28;20250;-83
2021/04/14 07:11:50;;;;;;;;;;;;;;;10.83;66.13;102087.59;5202916;28;20500;-82
2021/04/14 07:14:21;;;;;;;14.05;3.30;;;;;;;12.00;64.41;102073.63;5193244;28;19925;-82
2021/04/14 07:16:57;;;;;;;16.13;3.20;;;;;;;11.11;65.62;102084.59;5203799;28;20476;-81
2021/04/14 07:19:48;;;;;;;19.67;3.90;;;;;;;9.24;70.58;102088.19;5204143;28;20061;-81
2021/04/14 07:22:48;;;;;;;16.88;3.85;;;;;;;10.09;69.40;102079.72;5204718;28;20386;-81
2021/04/14 07:25:29;;;;;;;14.95;3.60;;;;;;;9.81;71.27;102086.03;5209613;28;20035;-81
2021/04/14 07:28:18;;;;;;;13.80;3.22;;;;;;;8.45;74.36;102081.63;5203512;28;20032;-83
2021/04/14 07:31:00;;;;;;;16.77;3.33;;;;;;;8.37;75.85;102085.09;5216639;28;20029;-81
2021/04/14 07:33:39;;;;;;;16.08;4.03;;;;;;;8.04;77.25;102079.94;5209326;28;20037;-82
2021/04/14 07:36:23;;;;;;;18.50;6.03;;;;;;;7.69;78.53;102087.75;5229945;28;20028;-82
2021/04/14 07:39:13;;;;;;;12.15;4.90;;;;;;;7.80;77.86;102088.63;5229605;28;20033;-82
2021/04/14 07:42:14;;;;;;;17.98;5.45;;;;;;;7.47;79.74;102091.19;5225952;28;20020;-82
2021/04/14 07:45:03;;;;;;;14.52;3.10;;;;;;;7.15;81.38;102093.75;5223824;28;20082;-81
2021/04/14 07:47:34;;;;;;;16.08;3.30;;;;;;;7.09;82.15;102088.53;5218148;28;20037;-82
2021/04/14 07:50:05;;;;;;;19.88;3.53;;;;;;;7.03;82.22;102091.09;5223082;28;20029;-81
2021/04/14 07:52:36;;;;;;;17.67;3.95;;;;;;;6.87;82.35;102090.19;5216951;28;20036;-81
2021/04/14 07:55:31;;;;;;;16.83;3.22;;;;;;;7.14;82.22;102085.06;5216855;28;20125;-81
2021/04/14 07:58:28;;;;;;;12.27;3.30;;;;;;;7.57;80.88;102082.56;5217095;28;20037;-81
2021/04/14 08:01:27;;;;;;;11.35;3.17;;;;;;;7.71;81.79;102083.41;5207460;28;20405;-81
2021/04/14 08:04:11;;;;;;;16.20;3.08;;;;;;;7.79;80.10;102089.50;5200807;28;20116;-82
2021/04/14 08:06:42;;;;;;;14.98;3.15;;;;;;;8.02;77.74;102077.31;5201639;28;20033;-81
2021/04/14 08:09:20;;;;;;;14.27;3.20;;;;;;;8.06;78.53;102086.00;5210569;28;20044;-82
2021/04/14 08:11:51;;;;;;;13.68;2.72;;;;;;;8.51;77.08;102078.09;5218205;28;20028;-81
2021/04/14 08:14:23;;;;;;;15.43;2.97;;;;;;;8.32;78.10;102073.81;5222956;28;20116;-81
2021/04/14 08:16:55;;;;;;;16.77;3.30;;;;;;;8.24;77.00;102081.63;5223460;28;20597;-82
2021/04/14 08:19:37;;;;;;;18.42;3.17;;;;;;;8.80;76.32;102066.72;5215235;28;20040;-82
2021/04/14 08:22:11;;;;;;;12.82;2.60;;;;;;;9.34;72.85;102069.00;5215768;28;20644;-81
2021/04/14 08:24:47;;;;;;;13.95;2.60;;;;;;;9.13;74.14;102061.31;5210366;28;20030;-82
2021/04/14 08:27:45;;;;;;;13.60;2.50;;;;;;;9.90;71.79;102070.28;5214469;28;20033;-82
2021/04/14 08:30:23;;;;;;;11.48;2.67;;;;;;;10.25;69.08;102049.94;5222215;28;20037;-81
2021/04/14 08:32:54;;;;;;;15.52;2.45;;;;;;;9.44;70.61;102055.88;5224343;28;20548;-81
2021/04/14 08:35:27;;;;;;;10.97;2.30;;;;;;;9.57;70.90;102056.66;5216225;28;20041;-82
2021/04/14 08:38:03;;;;;;;12.60;2.28;;;;;;;8.69;71.86;102060.66;5207029;28;20275;-82
2021/04/14 08:40:44;;;;;;;16.73;2.60;;;;;;;9.03;73.31;102062.22;5209402;28;20036;-82
2021/04/14 08:43:40;;;;;;;9.63;2.58;;;;;;;9.09;72.40;102054.38;5219145;28;20090;-82
2021/04/14 08:46:24;;;;;;;16.95;3.03;;;;;;;9.74;70.76;102054.75;5224367;28;20028;-81
2021/04/14 08:49:01;;;;;;;12.82;2.33;;;;;;;8.38;72.71;102066.84;5227084;28;20556;-82
2021/04/14 08:51:41;;;;;;;17.13;2.53;;;;;;;7.62;75.94;102064.31;5210446;28;20449;-81
2021/04/14 08:54:15;;;;;;;16.05;3.75;;;;;;;7.11;77.09;102066.00;5217779;28;20163;-81
2021/04/14 08:56:45;;;;;;;12.60;2.90;;;;;;;7.21;77.80;102071.22;5213191;28;21122;-81
2021/04/14 08:59:15;;;;;;;11.73;2.60;;;;;;;7.09;77.35;102066.00;5216093;28;20031;-81
2021/04/14 09:01:46;;;;;;;14.45;3.40;;;;;;;7.26;77.57;102059.09;5221237;28;20027;-81
2021/04/14 09:04:17;;;;;;;18.45;3.50;;;;;;;7.32;77.92;102070.38;5225062;28;20382;-81
2021/04/14 09:06:49;;;;;;;10.73;2.15;;;;;;;7.09;78.34;102065.13;5224995;28;20036;-81
2021/04/14 09:09:23;;;;;;;8.55;2.83;;;;;;;7.13;77.77;102059.06;5225088;28;20475;-81
2021/04/14 09:12:02;;;;;;;15.57;3.15;;;;;;;7.76;77.76;102058.28;5218285;28;20060;-81
2021/04/14 09:14:34;;;;;;;14.15;3.22;;;;;;;8.01;77.25;102057.34;5218451;28;20033;-81
2021/04/14 09:17:16;;;;;;;19.20;5.28;;;;;;;8.02;75.68;102051.28;5223308;28;20029;-82
2021/04/14 09:19:49;;;;;;;12.32;3.00;;;;;;;7.74;74.05;102052.16;5220843;28;20033;-81
2021/04/14 09:22:29;;;;;;;13.68;3.63;;;;;;;7.68;75.88;102059.13;5217648;28;20013;-81
2021/04/14 09:25:04;;;;;;;15.80;4.68;;;;;;;7.61;75.90;102049.56;5215525;28;20036;-81
2021/04/14 09:27:38;;;;;;;20.02;6.45;;;;;;;7.61;75.52;102049.56;5225523;28;20028;-81
2021/04/14 09:30:28;;;;;;;13.45;2.78;;;;;;;7.81;75.63;102040.03;5225784;28;20087;-81
2021/04/14 09:33:00;;;;;;;15.18;2.88;;;;;;;8.13;75.30;102041.72;5218962;28;20035;-81
2021/04/14 09:35:30;;;;;;;13.30;2.92;;;;;;;8.38;74.67;102045.16;5224476;28;20029;-81
2021/04/14 09:38:22;;;;;;;12.63;2.60;;;;;;;8.09;73.12;102036.53;5226501;28;20536;-82
2021/04/14 09:41:07;;;;;;;13.48;3.25;;;;;;;8.47;72.97;102035.56;5226311;28;20280;-82
2021/04/14 09:43:41;;;;;;;14.10;2.90;;;;;;;8.41;72.09;102035.56;5213010;28;20025;-82
2021/04/14 09:46:38;;;;;;;9.95;2.00;;;;;;;8.64;70.57;102032.88;5226768;28;20043;-81
2021/04/14 09:49:11;;;;;;;8.32;2.70;;;;;;;9.12;69.08;102019.59;5221887;28;20477;-81
2021/04/14 09:51:56;;;;;;;13.32;4.45;;;;;;;9.07;68.93;102024.81;5216333;28;20038;-81
2021/04/14 09:59:42;;;;;;;12.52;2.33;;;;;;;9.25;67.75;102027.31;5198002;28;20045;-82
2021/04/14 10:02:22;;;;;;;7.75;1.73;;;;;;;9.40;67.77;102021.97;5201252;28;20037;-82
2021/04/14 10:04:53;;;;;;;9.02;1.88;;;;;;;9.84;67.64;102014.66;5202391;28;20490;-82
2021/04/14 10:07:32;;;;;;;9.15;1.58;;;;;;;9.70;67.76;102013.91;5195673;28;20041;-82
2021/04/14 10:10:09;;;;;;;9.32;1.92;;;;;;;9.84;64.68;102012.03;5181145;28;20086;-82
2021/04/14 10:12:40;;;;;;;8.02;1.48;;;;;;;10.42;63.97;102003.59;5178120;28;20032;-80
2021/04/14 10:15:11;;;;;;;6.78;1.30;;;;;;;10.10;63.96;101994.38;5174775;28;20488;-80
2021/04/14 10:17:42;;;;;;;10.93;1.15;;;;;;;10.50;62.94;102001.72;5175388;28;20408;-80
2021/04/14 10:20:25;;;;;;;7.18;1.60;;;;;;;10.07;61.82;101997.03;5157848;28;20026;-81
2021/04/14 10:22:56;;;;;;;6.60;1.30;;;;;;;9.49;63.37;101998.44;5182908;28;20080;-80
2021/04/14 10:25:29;;;;;;;7.43;1.38;;;;;;;9.22;64.58;101998.63;5179437;28;20423;-82
2021/04/14 10:28:20;;;;;;;7.20;1.58;;;;;;;9.04;65.34;101992.72;5163526;28;20022;-79
2021/04/14 10:31:08;;;;;;;7.80;1.80;;;;;;;9.11;64.87;101987.44;5175691;28;20072;-80
2021/04/14 10:33:41;;;;;;;17.52;5.32;;;;;;;9.10;66.02;101983.06;5173540;28;20038;-79
2021/04/14 10:36:31;;;;;;;26.80;13.48;;;;;;;9.37;67.39;101982.88;5172941;28;20028;-81
2021/04/14 10:39:09;;;;;;;9.40;3.38;;;;;;;8.92;65.39;101983.19;5173417;28;20027;-80
2021/04/14 10:41:40;;;;;;;7.28;2.10;;;;;;;8.85;65.08;101978.03;5173332;28;20033;-80
2021/04/14 10:44:22;;;;;;;8.82;2.00;;;;;;;8.94;65.61;101981.47;5155647;28;20393;-79
2021/04/14 10:47:23;;;;;;;9.60;1.70;;;;;;;8.75;64.85;101969.41;5172020;28;20034;-79
2021/04/14 10:50:01;;;;;;;11.07;2.15;;;;;;;9.37;64.40;101978.53;5165912;28;20026;-82
2021/04/14 10:52:32;;;;;;;7.03;1.58;;;;;;;9.53;65.03;101967.09;5176456;28;20030;-81
2021/04/14 10:55:10;;;;;;;8.25;1.60;;;;;;;9.84;63.20;101963.28;5177960;28;20096;-81
2021/04/14 10:57:43;;;;;;;9.13;1.58;;;;;;;9.48;62.02;101974.06;5169523;28;20488;-81
2021/04/14 11:00:30;;;;;;;5.60;1.40;;;;;;;9.98;64.12;101969.22;5179583;28;20036;-79
2021/04/14 11:03:07;;;;;;;10.45;1.70;;;;;;;10.19;66.47;101957.72;5176051;28;20038;-81
2021/04/14 11:05:43;;;;;;;10.98;1.75;;;;;;;10.35;67.50;101959.25;5177149;28;20084;-82
2021/04/14 11:08:15;;;;;;;7.90;1.40;;;;;;;10.33;65.74;101961.03;5175095;28;20029;-81
2021/04/14 11:10:46;;;;;;;3.70;1.23;;;;;;;9.83;64.19;101964.16;5174855;28;20135;-80
2021/04/14 11:13:24;;;;;;;5.22;1.48;;;;;;;9.82;64.24;101961.56;5172539;28;20049;-81
2021/04/14 11:15:55;;;;;;;3.95;1.13;;;;;;;10.07;64.30;101952.63;5158619;28;20029;-81
2021/04/14 11:18:35;;;;;;;8.20;1.60;;;;;;;10.26;62.38;101948.91;5171969;28;20085;-81
2021/04/14 11:21:19;;;;;;;10.38;1.40;;;;;;;10.28;63.81;101947.13;5177276;28;20064;-81
2021/04/14 11:24:02;;;;;;;8.27;1.55;;;;;;;10.41;62.47;101933.03;5170960;28;20026;-81
2021/04/14 11:26:37;;;;;;;9.70;1.80;;;;;;;10.01;62.57;101943.09;5176486;28;20030;-81
2021/04/14 11:29:28;;;;;;;9.25;1.80;;;;;;;9.98;61.99;101937.03;5174073;28;20647;-81
2021/04/14 11:32:03;;;;;;;9.45;1.40;;;;;;;9.88;61.56;101945.84;5171783;28;20018;-81
2021/04/14 11:34:34;;;;;;;8.57;1.40;;;;;;;9.90;61.29;101941.47;5173703;28;20034;-80
2021/04/14 11:37:27;;;;;;;9.00;1.50;;;;;;;9.80;62.29;101942.47;5170425;28;20038;-81
2021/04/14 11:40:20;;;;;;;6.38;1.50;;;;;;;9.38;60.22;101943.75;5177198;28;20045;-81
2021/04/14 11:42:57;;;;;;;11.68;1.58;;;;;;;9.67;61.81;101941.69;5171203;28;20030;-80
2021/04/14 11:45:33;;;;;;;7.32;1.30;;;;;;;9.70;61.07;101935.59;5173982;28;20123;-80
2021/04/14 11:48:13;;;;;;;11.60;1.40;;;;;;;9.93;60.59;101925.75;5170934;28;20049;-81
2021/04/14 11:50:46;;;;;;;4.22;1.08;;;;;;;9.81;59.53;101936.34;5155254;28;20165;-80
2021/04/14 11:53:24;;;;;;;6.32;0.95;;;;;;;10.01;58.46;101929.16;5172246;28;20096;-82
2021/04/14 11:55:56;;;;;;;6.82;1.02;;;;;;;10.30;59.45;101919.22;5175460;28;20079;-80
2021/04/14 11:58:29;;;;;;;5.32;1.00;;;;;;;10.53;60.47;101911.97;5170907;28;20113;-81
2021/04/14 12:01:00;;;;;;;4.30;1.00;;;;;;;10.42;57.65;101906.00;5174636;28;20025;-81
2021/04/14 12:03:36;;;;;;;6.38;1.02;;;;;;;10.49;57.83;101910.28;5170995;28;20053;-82